sensor_id;sensor_type;location;lat;lon;timestamp;P1;durP1;ratioP1;P2;durP2;ratioP2
5225;SDS011;2632;51.666;7.146;2023-07-29T00:00:50;6.20;;;4.00;;
5225;SDS011;2632;51.666;7.146;2023-07-29T00:03:16;7.80;;;4.20;;
5225;SDS011;2632;51.666;7.146;2023-07-29T00:05:43;6.20;;;4.50;;
5225;SDS011;2632;51.666;7.146;2023-07-29T00:08:10;8.50;;;4.20;;
5225;SDS011;2632;51.666;7.146;2023-07-29T00:10:37;4.70;;;4.20;;
5225;SDS011;2632;51.666;7.146;2023-07-29T00:13:04;6.00;;;4.40;;
5225;SDS011;2632;51.666;7.146;2023-07-29T00:15:31;5.87;;;4.83;;
5225;SDS011;2632;51.666;7.146;2023-07-29T00:17:58;5.30;;;4.80;;
5225;SDS011;2632;51.666;7.146;2023-07-29T00:20:25;7.10;;;4.80;;
5225;SDS011;2632;51.666;7.146;2023-07-29T00:22:52;6.40;;;5.03;;
5225;SDS011;2632;51.666;7.146;2023-07-29T00:25:21;11.57;;;5.43;;
5225;SDS011;2632;51.666;7.146;2023-07-29T00:27:48;5.80;;;4.30;;
5225;SDS011;2632;51.666;7.146;2023-07-29T00:30:14;10.00;;;4.80;;
5225;SDS011;2632;51.666;7.146;2023-07-29T00:32:41;5.50;;;4.83;;
5225;SDS011;2632;51.666;7.146;2023-07-29T00:35:10;9.90;;;6.30;;
5225;SDS011;2632;51.666;7.146;2023-07-29T00:37:37;7.47;;;4.90;;
5225;SDS011;2632;51.666;7.146;2023-07-29T00:40:13;7.27;;;5.53;;
5225;SDS011;2632;51.666;7.146;2023-07-29T00:42:42;8.33;;;5.80;;
5225;SDS011;2632;51.666;7.146;2023-07-29T00:45:09;7.87;;;5.73;;
5225;SDS011;2632;51.666;7.146;2023-07-29T00:47:36;8.13;;;5.93;;
5225;SDS011;2632;51.666;7.146;2023-07-29T00:50:05;7.50;;;5.63;;
5225;SDS011;2632;51.666;7.146;2023-07-29T00:52:33;6.70;;;5.37;;
5225;SDS011;2632;51.666;7.146;2023-07-29T00:55:00;6.50;;;4.90;;
5225;SDS011;2632;51.666;7.146;2023-07-29T00:57:27;8.73;;;4.93;;
5225;SDS011;2632;51.666;7.146;2023-07-29T00:59:55;6.50;;;4.80;;
5225;SDS011;2632;51.666;7.146;2023-07-29T01:02:22;5.80;;;4.83;;
5225;SDS011;2632;51.666;7.146;2023-07-29T01:04:53;6.17;;;5.30;;
5225;SDS011;2632;51.666;7.146;2023-07-29T01:07:22;11.37;;;5.33;;
5225;SDS011;2632;51.666;7.146;2023-07-29T01:10:03;6.67;;;5.07;;
5225;SDS011;2632;51.666;7.146;2023-07-29T01:18:25;6.77;;;4.80;;
5225;SDS011;2632;51.666;7.146;2023-07-29T01:20:57;7.93;;;4.80;;
5225;SDS011;2632;51.666;7.146;2023-07-29T01:23:26;6.77;;;5.23;;
5225;SDS011;2632;51.666;7.146;2023-07-29T01:26:00;7.60;;;5.07;;
5225;SDS011;2632;51.666;7.146;2023-07-29T01:28:27;6.00;;;4.97;;
5225;SDS011;2632;51.666;7.146;2023-07-29T01:30:58;6.30;;;4.40;;
5225;SDS011;2632;51.666;7.146;2023-07-29T01:33:34;6.83;;;5.30;;
5225;SDS011;2632;51.666;7.146;2023-07-29T01:36:11;9.30;;;5.57;;
5225;SDS011;2632;51.666;7.146;2023-07-29T01:38:44;6.50;;;5.37;;
5225;SDS011;2632;51.666;7.146;2023-07-29T01:41:11;6.57;;;4.93;;
5225;SDS011;2632;51.666;7.146;2023-07-29T01:43:38;5.73;;;5.07;;
5225;SDS011;2632;51.666;7.146;2023-07-29T01:46:12;11.77;;;5.60;;
5225;SDS011;2632;51.666;7.146;2023-07-29T01:48:41;7.50;;;5.10;;
5225;SDS011;2632;51.666;7.146;2023-07-29T01:51:11;10.63;;;5.17;;
5225;SDS011;2632;51.666;7.146;2023-07-29T01:53:38;8.80;;;5.80;;
5225;SDS011;2632;51.666;7.146;2023-07-29T01:56:05;10.23;;;5.37;;
5225;SDS011;2632;51.666;7.146;2023-07-29T01:58:32;8.80;;;5.33;;
5225;SDS011;2632;51.666;7.146;2023-07-29T02:00:59;7.70;;;5.13;;
5225;SDS011;2632;51.666;7.146;2023-07-29T02:03:25;8.50;;;5.63;;
5225;SDS011;2632;51.666;7.146;2023-07-29T02:05:52;6.37;;;5.50;;
5225;SDS011;2632;51.666;7.146;2023-07-29T02:08:19;6.83;;;5.40;;
5225;SDS011;2632;51.666;7.146;2023-07-29T02:10:47;8.00;;;5.43;;
5225;SDS011;2632;51.666;7.146;2023-07-29T02:13:15;10.30;;;5.30;;
5225;SDS011;2632;51.666;7.146;2023-07-29T02:15:42;9.30;;;5.17;;
5225;SDS011;2632;51.666;7.146;2023-07-29T02:18:08;8.90;;;5.57;;
5225;SDS011;2632;51.666;7.146;2023-07-29T02:20:35;8.37;;;5.80;;
5225;SDS011;2632;51.666;7.146;2023-07-29T02:23:02;5.33;;;4.73;;
5225;SDS011;2632;51.666;7.146;2023-07-29T02:25:34;11.10;;;6.43;;
5225;SDS011;2632;51.666;7.146;2023-07-29T02:28:01;8.10;;;5.10;;
5225;SDS011;2632;51.666;7.146;2023-07-29T02:30:29;7.90;;;5.60;;
5225;SDS011;2632;51.666;7.146;2023-07-29T02:32:56;8.10;;;5.80;;
5225;SDS011;2632;51.666;7.146;2023-07-29T02:35:23;6.83;;;5.20;;
5225;SDS011;2632;51.666;7.146;2023-07-29T02:37:49;9.27;;;5.70;;
5225;SDS011;2632;51.666;7.146;2023-07-29T02:40:16;7.10;;;4.60;;
5225;SDS011;2632;51.666;7.146;2023-07-29T02:42:43;8.97;;;5.00;;
5225;SDS011;2632;51.666;7.146;2023-07-29T02:45:09;12.30;;;5.37;;
5225;SDS011;2632;51.666;7.146;2023-07-29T02:47:37;8.80;;;5.50;;
5225;SDS011;2632;51.666;7.146;2023-07-29T02:50:04;10.50;;;5.67;;
5225;SDS011;2632;51.666;7.146;2023-07-29T02:52:31;6.57;;;5.23;;
5225;SDS011;2632;51.666;7.146;2023-07-29T02:54:58;9.93;;;5.57;;
5225;SDS011;2632;51.666;7.146;2023-07-29T02:57:24;8.13;;;5.40;;
5225;SDS011;2632;51.666;7.146;2023-07-29T02:59:51;7.43;;;5.10;;
5225;SDS011;2632;51.666;7.146;2023-07-29T03:02:18;10.07;;;5.60;;
5225;SDS011;2632;51.666;7.146;2023-07-29T03:04:44;8.23;;;5.70;;
5225;SDS011;2632;51.666;7.146;2023-07-29T03:07:11;9.57;;;6.07;;
5225;SDS011;2632;51.666;7.146;2023-07-29T03:09:38;10.50;;;5.37;;
5225;SDS011;2632;51.666;7.146;2023-07-29T03:12:05;7.70;;;5.47;;
5225;SDS011;2632;51.666;7.146;2023-07-29T03:14:32;7.70;;;5.83;;
5225;SDS011;2632;51.666;7.146;2023-07-29T03:17:01;8.07;;;5.80;;
5225;SDS011;2632;51.666;7.146;2023-07-29T03:19:29;8.47;;;5.70;;
5225;SDS011;2632;51.666;7.146;2023-07-29T03:21:56;9.63;;;5.53;;
5225;SDS011;2632;51.666;7.146;2023-07-29T03:24:23;8.17;;;5.87;;
5225;SDS011;2632;51.666;7.146;2023-07-29T03:26:49;8.70;;;5.60;;
5225;SDS011;2632;51.666;7.146;2023-07-29T03:29:16;8.77;;;6.10;;
5225;SDS011;2632;51.666;7.146;2023-07-29T03:31:43;7.40;;;5.50;;
5225;SDS011;2632;51.666;7.146;2023-07-29T03:34:09;8.23;;;6.20;;
5225;SDS011;2632;51.666;7.146;2023-07-29T03:36:37;6.70;;;5.47;;
5225;SDS011;2632;51.666;7.146;2023-07-29T03:39:04;6.50;;;5.00;;
5225;SDS011;2632;51.666;7.146;2023-07-29T03:41:31;8.10;;;5.00;;
5225;SDS011;2632;51.666;7.146;2023-07-29T03:43:57;13.43;;;6.20;;
5225;SDS011;2632;51.666;7.146;2023-07-29T03:46:24;8.70;;;5.80;;
5225;SDS011;2632;51.666;7.146;2023-07-29T03:48:51;9.30;;;5.50;;
5225;SDS011;2632;51.666;7.146;2023-07-29T03:51:18;6.17;;;5.00;;
5225;SDS011;2632;51.666;7.146;2023-07-29T03:53:45;6.67;;;5.30;;
5225;SDS011;2632;51.666;7.146;2023-07-29T03:56:11;8.13;;;4.90;;
5225;SDS011;2632;51.666;7.146;2023-07-29T03:58:38;9.00;;;5.53;;
5225;SDS011;2632;51.666;7.146;2023-07-29T04:01:05;8.83;;;5.60;;
5225;SDS011;2632;51.666;7.146;2023-07-29T04:03:33;8.03;;;5.77;;
5225;SDS011;2632;51.666;7.146;2023-07-29T04:06:00;8.70;;;5.43;;
5225;SDS011;2632;51.666;7.146;2023-07-29T04:08:27;8.50;;;5.70;;
5225;SDS011;2632;51.666;7.146;2023-07-29T04:10:54;10.80;;;5.70;;
5225;SDS011;2632;51.666;7.146;2023-07-29T04:13:20;10.13;;;5.53;;
5225;SDS011;2632;51.666;7.146;2023-07-29T04:15:47;9.60;;;6.00;;
5225;SDS011;2632;51.666;7.146;2023-07-29T04:18:14;8.60;;;5.50;;
5225;SDS011;2632;51.666;7.146;2023-07-29T04:20:41;9.50;;;6.27;;
5225;SDS011;2632;51.666;7.146;2023-07-29T04:23:07;10.30;;;5.80;;
5225;SDS011;2632;51.666;7.146;2023-07-29T04:25:34;10.90;;;5.90;;
5225;SDS011;2632;51.666;7.146;2023-07-29T04:28:01;14.10;;;6.43;;
5225;SDS011;2632;51.666;7.146;2023-07-29T04:30:29;10.77;;;6.57;;
5225;SDS011;2632;51.666;7.146;2023-07-29T04:32:56;10.23;;;6.47;;
5225;SDS011;2632;51.666;7.146;2023-07-29T04:35:22;13.03;;;7.03;;
5225;SDS011;2632;51.666;7.146;2023-07-29T04:37:49;9.60;;;7.30;;
5225;SDS011;2632;51.666;7.146;2023-07-29T04:40:16;12.00;;;6.93;;
5225;SDS011;2632;51.666;7.146;2023-07-29T04:42:42;9.43;;;6.60;;
5225;SDS011;2632;51.666;7.146;2023-07-29T04:45:09;6.27;;;4.73;;
5225;SDS011;2632;51.666;7.146;2023-07-29T04:47:36;8.20;;;5.40;;
5225;SDS011;2632;51.666;7.146;2023-07-29T04:50:03;6.90;;;5.00;;
5225;SDS011;2632;51.666;7.146;2023-07-29T04:52:30;6.80;;;4.60;;
5225;SDS011;2632;51.666;7.146;2023-07-29T04:54:56;5.70;;;4.30;;
5225;SDS011;2632;51.666;7.146;2023-07-29T04:57:23;6.40;;;4.03;;
5225;SDS011;2632;51.666;7.146;2023-07-29T04:59:50;5.23;;;3.80;;
5225;SDS011;2632;51.666;7.146;2023-07-29T05:02:16;4.30;;;3.20;;
5225;SDS011;2632;51.666;7.146;2023-07-29T05:04:43;5.60;;;5.10;;
5225;SDS011;2632;51.666;7.146;2023-07-29T05:07:10;5.20;;;3.50;;
5225;SDS011;2632;51.666;7.146;2023-07-29T05:09:36;3.90;;;3.40;;
5225;SDS011;2632;51.666;7.146;2023-07-29T05:12:03;4.20;;;3.80;;
5225;SDS011;2632;51.666;7.146;2023-07-29T05:14:30;4.47;;;3.60;;
5225;SDS011;2632;51.666;7.146;2023-07-29T05:16:57;4.00;;;3.60;;
5225;SDS011;2632;51.666;7.146;2023-07-29T05:19:23;3.37;;;3.00;;
5225;SDS011;2632;51.666;7.146;2023-07-29T05:21:50;6.93;;;4.80;;
5225;SDS011;2632;51.666;7.146;2023-07-29T05:24:17;11.43;;;6.33;;
5225;SDS011;2632;51.666;7.146;2023-07-29T05:26:43;6.90;;;4.87;;
5225;SDS011;2632;51.666;7.146;2023-07-29T05:29:10;7.93;;;6.57;;
5225;SDS011;2632;51.666;7.146;2023-07-29T05:31:37;13.43;;;7.10;;
5225;SDS011;2632;51.666;7.146;2023-07-29T05:34:03;9.03;;;6.50;;
5225;SDS011;2632;51.666;7.146;2023-07-29T05:36:30;9.07;;;6.50;;
5225;SDS011;2632;51.666;7.146;2023-07-29T05:38:57;8.03;;;6.67;;
5225;SDS011;2632;51.666;7.146;2023-07-29T05:41:23;10.07;;;6.30;;
5225;SDS011;2632;51.666;7.146;2023-07-29T05:43:52;9.80;;;7.10;;
5225;SDS011;2632;51.666;7.146;2023-07-29T05:46:18;9.63;;;6.73;;
5225;SDS011;2632;51.666;7.146;2023-07-29T05:48:45;10.90;;;7.50;;
5225;SDS011;2632;51.666;7.146;2023-07-29T05:51:12;11.73;;;8.10;;
5225;SDS011;2632;51.666;7.146;2023-07-29T05:53:38;9.63;;;7.07;;
5225;SDS011;2632;51.666;7.146;2023-07-29T05:56:05;11.40;;;8.60;;
5225;SDS011;2632;51.666;7.146;2023-07-29T05:58:32;11.70;;;7.93;;
5225;SDS011;2632;51.666;7.146;2023-07-29T06:00:58;11.77;;;8.00;;
5225;SDS011;2632;51.666;7.146;2023-07-29T06:03:25;12.50;;;8.43;;
5225;SDS011;2632;51.666;7.146;2023-07-29T06:05:52;11.90;;;7.87;;
5225;SDS011;2632;51.666;7.146;2023-07-29T06:08:20;10.57;;;7.80;;
5225;SDS011;2632;51.666;7.146;2023-07-29T06:10:47;12.70;;;7.90;;
5225;SDS011;2632;51.666;7.146;2023-07-29T06:13:14;11.50;;;6.90;;
5225;SDS011;2632;51.666;7.146;2023-07-29T06:15:40;12.40;;;6.00;;
5225;SDS011;2632;51.666;7.146;2023-07-29T06:18:07;9.20;;;5.67;;
5225;SDS011;2632;51.666;7.146;2023-07-29T06:20:34;8.37;;;5.57;;
5225;SDS011;2632;51.666;7.146;2023-07-29T06:23:01;9.23;;;5.60;;
5225;SDS011;2632;51.666;7.146;2023-07-29T06:25:28;9.37;;;5.07;;
5225;SDS011;2632;51.666;7.146;2023-07-29T06:27:54;5.57;;;4.47;;
5225;SDS011;2632;51.666;7.146;2023-07-29T06:30:21;5.40;;;4.00;;
5225;SDS011;2632;51.666;7.146;2023-07-29T06:32:48;4.13;;;3.40;;
5225;SDS011;2632;51.666;7.146;2023-07-29T06:35:15;4.67;;;3.50;;
5225;SDS011;2632;51.666;7.146;2023-07-29T06:37:41;4.13;;;3.20;;
5225;SDS011;2632;51.666;7.146;2023-07-29T06:40:08;4.30;;;2.73;;
5225;SDS011;2632;51.666;7.146;2023-07-29T06:42:35;4.97;;;3.20;;
5225;SDS011;2632;51.666;7.146;2023-07-29T06:45:04;4.80;;;3.10;;
5225;SDS011;2632;51.666;7.146;2023-07-29T06:47:31;2.90;;;2.60;;
5225;SDS011;2632;51.666;7.146;2023-07-29T06:49:58;3.40;;;2.90;;
5225;SDS011;2632;51.666;7.146;2023-07-29T06:52:24;4.00;;;2.80;;
5225;SDS011;2632;51.666;7.146;2023-07-29T06:54:51;3.27;;;2.63;;
5225;SDS011;2632;51.666;7.146;2023-07-29T06:57:18;3.47;;;2.70;;
5225;SDS011;2632;51.666;7.146;2023-07-29T06:59:44;3.87;;;2.47;;
5225;SDS011;2632;51.666;7.146;2023-07-29T07:02:11;4.00;;;2.50;;
5225;SDS011;2632;51.666;7.146;2023-07-29T07:04:38;3.60;;;2.73;;
5225;SDS011;2632;51.666;7.146;2023-07-29T07:07:04;3.33;;;2.20;;
5225;SDS011;2632;51.666;7.146;2023-07-29T07:09:31;4.00;;;2.70;;
5225;SDS011;2632;51.666;7.146;2023-07-29T07:11:58;5.77;;;2.97;;
5225;SDS011;2632;51.666;7.146;2023-07-29T07:14:24;2.27;;;2.07;;
5225;SDS011;2632;51.666;7.146;2023-07-29T07:16:51;4.30;;;2.43;;
5225;SDS011;2632;51.666;7.146;2023-07-29T07:19:18;7.07;;;2.07;;
5225;SDS011;2632;51.666;7.146;2023-07-29T07:21:45;4.80;;;2.27;;
5225;SDS011;2632;51.666;7.146;2023-07-29T07:24:11;8.30;;;3.93;;
5225;SDS011;2632;51.666;7.146;2023-07-29T07:26:38;1.60;;;1.50;;
5225;SDS011;2632;51.666;7.146;2023-07-29T07:29:05;2.27;;;1.60;;
5225;SDS011;2632;51.666;7.146;2023-07-29T07:31:35;4.83;;;1.70;;
5225;SDS011;2632;51.666;7.146;2023-07-29T07:34:02;5.13;;;2.67;;
5225;SDS011;2632;51.666;7.146;2023-07-29T07:36:29;2.47;;;1.80;;
5225;SDS011;2632;51.666;7.146;2023-07-29T07:38:55;1.43;;;1.33;;
5225;SDS011;2632;51.666;7.146;2023-07-29T07:41:22;1.60;;;1.40;;
5225;SDS011;2632;51.666;7.146;2023-07-29T07:43:50;5.03;;;1.73;;
5225;SDS011;2632;51.666;7.146;2023-07-29T07:46:16;3.53;;;1.57;;
5225;SDS011;2632;51.666;7.146;2023-07-29T07:48:43;2.83;;;1.53;;
5225;SDS011;2632;51.666;7.146;2023-07-29T07:51:13;3.53;;;1.70;;
5225;SDS011;2632;51.666;7.146;2023-07-29T07:53:40;4.47;;;1.40;;
5225;SDS011;2632;51.666;7.146;2023-07-29T07:56:07;8.73;;;1.50;;
5225;SDS011;2632;51.666;7.146;2023-07-29T07:58:33;2.17;;;1.33;;
5225;SDS011;2632;51.666;7.146;2023-07-29T08:01:01;2.37;;;1.43;;
5225;SDS011;2632;51.666;7.146;2023-07-29T08:03:31;2.53;;;1.50;;
5225;SDS011;2632;51.666;7.146;2023-07-29T08:05:58;1.70;;;1.33;;
5225;SDS011;2632;51.666;7.146;2023-07-29T08:08:25;2.87;;;1.63;;
5225;SDS011;2632;51.666;7.146;2023-07-29T08:10:53;2.30;;;1.37;;
5225;SDS011;2632;51.666;7.146;2023-07-29T08:13:21;1.13;;;1.03;;
5225;SDS011;2632;51.666;7.146;2023-07-29T08:15:49;2.67;;;1.23;;
5225;SDS011;2632;51.666;7.146;2023-07-29T08:18:19;1.60;;;1.20;;
5225;SDS011;2632;51.666;7.146;2023-07-29T08:20:53;4.10;;;1.27;;
5225;SDS011;2632;51.666;7.146;2023-07-29T08:23:34;1.03;;;0.93;;
5225;SDS011;2632;51.666;7.146;2023-07-29T08:26:02;1.20;;;1.10;;
5225;SDS011;2632;51.666;7.146;2023-07-29T08:28:33;3.30;;;1.50;;
5225;SDS011;2632;51.666;7.146;2023-07-29T08:31:03;3.67;;;1.50;;
5225;SDS011;2632;51.666;7.146;2023-07-29T08:33:31;1.43;;;1.13;;
5225;SDS011;2632;51.666;7.146;2023-07-29T08:35:59;1.33;;;1.00;;
5225;SDS011;2632;51.666;7.146;2023-07-29T08:38:26;2.20;;;1.43;;
5225;SDS011;2632;51.666;7.146;2023-07-29T08:41:14;1.47;;;1.23;;
5225;SDS011;2632;51.666;7.146;2023-07-29T08:44:06;1.40;;;1.30;;
5225;SDS011;2632;51.666;7.146;2023-07-29T08:46:52;1.40;;;1.30;;
5225;SDS011;2632;51.666;7.146;2023-07-29T08:49:20;1.10;;;1.00;;
5225;SDS011;2632;51.666;7.146;2023-07-29T08:51:49;4.07;;;1.40;;
5225;SDS011;2632;51.666;7.146;2023-07-29T08:54:19;2.50;;;1.30;;
5225;SDS011;2632;51.666;7.146;2023-07-29T08:56:46;1.33;;;1.23;;
5225;SDS011;2632;51.666;7.146;2023-07-29T08:59:12;1.60;;;1.20;;
5225;SDS011;2632;51.666;7.146;2023-07-29T09:01:40;1.50;;;1.17;;
5225;SDS011;2632;51.666;7.146;2023-07-29T09:04:07;1.27;;;1.17;;
5225;SDS011;2632;51.666;7.146;2023-07-29T09:06:35;1.00;;;1.00;;
5225;SDS011;2632;51.666;7.146;2023-07-29T09:09:04;2.60;;;1.27;;
5225;SDS011;2632;51.666;7.146;2023-07-29T09:11:33;2.30;;;1.10;;
5225;SDS011;2632;51.666;7.146;2023-07-29T09:14:00;3.90;;;1.03;;
5225;SDS011;2632;51.666;7.146;2023-07-29T09:16:26;1.30;;;1.10;;
5225;SDS011;2632;51.666;7.146;2023-07-29T09:18:53;1.80;;;1.07;;
5225;SDS011;2632;51.666;7.146;2023-07-29T09:21:24;2.10;;;1.20;;
5225;SDS011;2632;51.666;7.146;2023-07-29T09:23:53;2.50;;;0.90;;
5225;SDS011;2632;51.666;7.146;2023-07-29T09:26:26;1.37;;;0.97;;
5225;SDS011;2632;51.666;7.146;2023-07-29T09:28:56;1.07;;;0.80;;
5225;SDS011;2632;51.666;7.146;2023-07-29T09:31:25;1.13;;;0.83;;
5225;SDS011;2632;51.666;7.146;2023-07-29T09:34:03;4.80;;;0.90;;
5225;SDS011;2632;51.666;7.146;2023-07-29T09:36:32;2.20;;;0.80;;
5225;SDS011;2632;51.666;7.146;2023-07-29T09:39:01;0.90;;;0.90;;
5225;SDS011;2632;51.666;7.146;2023-07-29T09:41:29;1.10;;;0.80;;
5225;SDS011;2632;51.666;7.146;2023-07-29T09:43:58;1.40;;;0.90;;
5225;SDS011;2632;51.666;7.146;2023-07-29T09:46:31;0.80;;;0.80;;
5225;SDS011;2632;51.666;7.146;2023-07-29T09:49:06;0.73;;;0.73;;
5225;SDS011;2632;51.666;7.146;2023-07-29T09:51:37;1.37;;;1.27;;
5225;SDS011;2632;51.666;7.146;2023-07-29T09:54:05;2.17;;;0.90;;
5225;SDS011;2632;51.666;7.146;2023-07-29T09:56:33;1.50;;;0.93;;
5225;SDS011;2632;51.666;7.146;2023-07-29T09:59:00;1.17;;;1.07;;
5225;SDS011;2632;51.666;7.146;2023-07-29T10:01:30;1.50;;;1.00;;
5225;SDS011;2632;51.666;7.146;2023-07-29T10:03:58;1.10;;;1.00;;
5225;SDS011;2632;51.666;7.146;2023-07-29T10:06:28;1.10;;;0.93;;
5225;SDS011;2632;51.666;7.146;2023-07-29T10:08:55;1.83;;;1.30;;
5225;SDS011;2632;51.666;7.146;2023-07-29T10:11:23;1.40;;;1.30;;
5225;SDS011;2632;51.666;7.146;2023-07-29T10:13:51;1.70;;;1.40;;
5225;SDS011;2632;51.666;7.146;2023-07-29T10:16:32;2.60;;;1.30;;
5225;SDS011;2632;51.666;7.146;2023-07-29T10:19:03;1.50;;;1.40;;
5225;SDS011;2632;51.666;7.146;2023-07-29T10:21:31;1.60;;;1.33;;
5225;SDS011;2632;51.666;7.146;2023-07-29T10:23:59;1.70;;;1.60;;
5225;SDS011;2632;51.666;7.146;2023-07-29T10:26:28;1.73;;;1.63;;
5225;SDS011;2632;51.666;7.146;2023-07-29T10:28:59;1.80;;;1.60;;
5225;SDS011;2632;51.666;7.146;2023-07-29T10:31:31;2.87;;;1.40;;
5225;SDS011;2632;51.666;7.146;2023-07-29T10:34:00;2.40;;;1.67;;
5225;SDS011;2632;51.666;7.146;2023-07-29T10:36:27;4.47;;;2.07;;
5225;SDS011;2632;51.666;7.146;2023-07-29T10:38:55;3.67;;;1.50;;
5225;SDS011;2632;51.666;7.146;2023-07-29T10:41:22;2.33;;;1.60;;
5225;SDS011;2632;51.666;7.146;2023-07-29T10:43:49;1.70;;;1.60;;
5225;SDS011;2632;51.666;7.146;2023-07-29T10:46:19;1.90;;;1.70;;
5225;SDS011;2632;51.666;7.146;2023-07-29T10:51:23;1.80;;;1.70;;
5225;SDS011;2632;51.666;7.146;2023-07-29T10:53:52;1.90;;;1.80;;
5225;SDS011;2632;51.666;7.146;2023-07-29T10:56:27;2.20;;;1.93;;
5225;SDS011;2632;51.666;7.146;2023-07-29T11:01:40;3.80;;;1.50;;
5225;SDS011;2632;51.666;7.146;2023-07-29T11:12:35;3.07;;;1.70;;
5225;SDS011;2632;51.666;7.146;2023-07-29T11:17:37;1.87;;;1.73;;
5225;SDS011;2632;51.666;7.146;2023-07-29T11:20:05;4.17;;;2.00;;
5225;SDS011;2632;51.666;7.146;2023-07-29T11:22:36;2.00;;;1.90;;
5225;SDS011;2632;51.666;7.146;2023-07-29T11:25:04;2.90;;;1.73;;
5225;SDS011;2632;51.666;7.146;2023-07-29T11:27:33;2.07;;;1.97;;
5225;SDS011;2632;51.666;7.146;2023-07-29T11:30:01;2.23;;;2.00;;
5225;SDS011;2632;51.666;7.146;2023-07-29T11:32:31;4.60;;;2.10;;
5225;SDS011;2632;51.666;7.146;2023-07-29T11:35:09;2.67;;;1.93;;
5225;SDS011;2632;51.666;7.146;2023-07-29T11:37:37;1.63;;;1.53;;
5225;SDS011;2632;51.666;7.146;2023-07-29T11:40:05;2.93;;;1.57;;
5225;SDS011;2632;51.666;7.146;2023-07-29T11:42:33;2.80;;;1.80;;
5225;SDS011;2632;51.666;7.146;2023-07-29T11:45:01;2.83;;;2.00;;
5225;SDS011;2632;51.666;7.146;2023-07-29T11:47:30;3.40;;;2.10;;
5225;SDS011;2632;51.666;7.146;2023-07-29T11:50:00;3.00;;;1.70;;
5225;SDS011;2632;51.666;7.146;2023-07-29T11:52:27;2.47;;;1.60;;
5225;SDS011;2632;51.666;7.146;2023-07-29T11:54:55;1.87;;;1.50;;
5225;SDS011;2632;51.666;7.146;2023-07-29T11:57:21;1.50;;;1.40;;
5225;SDS011;2632;51.666;7.146;2023-07-29T11:59:50;5.07;;;2.03;;
5225;SDS011;2632;51.666;7.146;2023-07-29T12:02:17;1.80;;;1.70;;
5225;SDS011;2632;51.666;7.146;2023-07-29T12:04:46;1.53;;;1.40;;
5225;SDS011;2632;51.666;7.146;2023-07-29T12:07:13;2.63;;;1.60;;
5225;SDS011;2632;51.666;7.146;2023-07-29T12:09:42;1.77;;;1.60;;
5225;SDS011;2632;51.666;7.146;2023-07-29T12:12:09;2.57;;;1.80;;
5225;SDS011;2632;51.666;7.146;2023-07-29T12:14:36;2.70;;;1.77;;
5225;SDS011;2632;51.666;7.146;2023-07-29T12:17:04;2.80;;;1.50;;
5225;SDS011;2632;51.666;7.146;2023-07-29T12:19:35;1.97;;;1.40;;
5225;SDS011;2632;51.666;7.146;2023-07-29T12:22:03;1.60;;;1.50;;
5225;SDS011;2632;51.666;7.146;2023-07-29T12:24:32;12.03;;;2.20;;
5225;SDS011;2632;51.666;7.146;2023-07-29T12:27:00;2.10;;;1.90;;
5225;SDS011;2632;51.666;7.146;2023-07-29T12:29:27;2.10;;;1.57;;
5225;SDS011;2632;51.666;7.146;2023-07-29T12:31:58;2.43;;;2.23;;
5225;SDS011;2632;51.666;7.146;2023-07-29T12:34:26;4.10;;;1.90;;
5225;SDS011;2632;51.666;7.146;2023-07-29T12:36:55;2.17;;;1.97;;
5225;SDS011;2632;51.666;7.146;2023-07-29T12:41:54;2.40;;;2.20;;
5225;SDS011;2632;51.666;7.146;2023-07-29T12:44:25;5.50;;;2.13;;
5225;SDS011;2632;51.666;7.146;2023-07-29T12:46:55;2.47;;;2.07;;
5225;SDS011;2632;51.666;7.146;2023-07-29T12:49:22;2.97;;;2.60;;
5225;SDS011;2632;51.666;7.146;2023-07-29T12:51:49;4.10;;;2.83;;
5225;SDS011;2632;51.666;7.146;2023-07-29T12:54:15;2.13;;;2.00;;
5225;SDS011;2632;51.666;7.146;2023-07-29T12:56:42;2.73;;;2.10;;
5225;SDS011;2632;51.666;7.146;2023-07-29T12:59:09;2.50;;;2.17;;
5225;SDS011;2632;51.666;7.146;2023-07-29T13:01:35;2.60;;;2.33;;
5225;SDS011;2632;51.666;7.146;2023-07-29T13:04:02;2.50;;;2.30;;
5225;SDS011;2632;51.666;7.146;2023-07-29T13:06:29;2.77;;;1.90;;
5225;SDS011;2632;51.666;7.146;2023-07-29T13:08:58;3.10;;;2.50;;
5225;SDS011;2632;51.666;7.146;2023-07-29T13:11:24;5.70;;;3.23;;
5225;SDS011;2632;51.666;7.146;2023-07-29T13:13:52;4.03;;;3.70;;
5225;SDS011;2632;51.666;7.146;2023-07-29T13:16:19;3.70;;;3.40;;
5225;SDS011;2632;51.666;7.146;2023-07-29T13:18:45;6.60;;;3.37;;
5225;SDS011;2632;51.666;7.146;2023-07-29T13:21:12;3.37;;;2.80;;
5225;SDS011;2632;51.666;7.146;2023-07-29T13:23:39;2.87;;;2.43;;
5225;SDS011;2632;51.666;7.146;2023-07-29T13:26:05;2.53;;;2.33;;
5225;SDS011;2632;51.666;7.146;2023-07-29T13:28:32;2.40;;;1.90;;
5225;SDS011;2632;51.666;7.146;2023-07-29T13:30:59;2.67;;;2.40;;
5225;SDS011;2632;51.666;7.146;2023-07-29T13:33:25;4.40;;;2.23;;
5225;SDS011;2632;51.666;7.146;2023-07-29T13:35:52;3.97;;;2.20;;
5225;SDS011;2632;51.666;7.146;2023-07-29T13:38:31;3.37;;;2.00;;
5225;SDS011;2632;51.666;7.146;2023-07-29T13:40:58;4.10;;;2.50;;
5225;SDS011;2632;51.666;7.146;2023-07-29T13:43:24;4.00;;;2.10;;
5225;SDS011;2632;51.666;7.146;2023-07-29T13:45:51;2.50;;;2.30;;
5225;SDS011;2632;51.666;7.146;2023-07-29T13:48:18;2.50;;;2.30;;
5225;SDS011;2632;51.666;7.146;2023-07-29T13:50:46;3.10;;;2.40;;
5225;SDS011;2632;51.666;7.146;2023-07-29T13:53:12;2.20;;;2.00;;
5225;SDS011;2632;51.666;7.146;2023-07-29T13:55:39;2.00;;;1.80;;
5225;SDS011;2632;51.666;7.146;2023-07-29T13:58:09;2.50;;;2.00;;
5225;SDS011;2632;51.666;7.146;2023-07-29T14:00:35;7.20;;;2.90;;
5225;SDS011;2632;51.666;7.146;2023-07-29T14:03:02;6.10;;;2.80;;
5225;SDS011;2632;51.666;7.146;2023-07-29T14:05:29;8.20;;;3.00;;
5225;SDS011;2632;51.666;7.146;2023-07-29T14:07:56;8.63;;;3.13;;
5225;SDS011;2632;51.666;7.146;2023-07-29T14:10:22;3.83;;;2.43;;
5225;SDS011;2632;51.666;7.146;2023-07-29T14:12:49;9.67;;;2.60;;
5225;SDS011;2632;51.666;7.146;2023-07-29T14:15:16;3.60;;;2.40;;
5225;SDS011;2632;51.666;7.146;2023-07-29T14:17:43;4.57;;;2.00;;
5225;SDS011;2632;51.666;7.146;2023-07-29T14:20:10;4.40;;;2.00;;
5225;SDS011;2632;51.666;7.146;2023-07-29T14:22:37;5.67;;;2.07;;
5225;SDS011;2632;51.666;7.146;2023-07-29T14:25:03;8.00;;;2.30;;
5225;SDS011;2632;51.666;7.146;2023-07-29T14:27:30;4.03;;;2.27;;
5225;SDS011;2632;51.666;7.146;2023-07-29T14:29:57;5.93;;;2.33;;
5225;SDS011;2632;51.666;7.146;2023-07-29T14:32:24;2.90;;;1.97;;
5225;SDS011;2632;51.666;7.146;2023-07-29T14:34:51;2.23;;;2.03;;
5225;SDS011;2632;51.666;7.146;2023-07-29T14:37:17;2.40;;;2.20;;
5225;SDS011;2632;51.666;7.146;2023-07-29T14:39:44;4.43;;;1.93;;
5225;SDS011;2632;51.666;7.146;2023-07-29T14:42:11;1.80;;;1.40;;
5225;SDS011;2632;51.666;7.146;2023-07-29T14:44:37;2.70;;;1.70;;
5225;SDS011;2632;51.666;7.146;2023-07-29T14:47:04;1.90;;;1.30;;
5225;SDS011;2632;51.666;7.146;2023-07-29T14:49:31;1.60;;;1.23;;
5225;SDS011;2632;51.666;7.146;2023-07-29T14:51:58;1.43;;;1.33;;
5225;SDS011;2632;51.666;7.146;2023-07-29T14:54:24;1.77;;;1.40;;
5225;SDS011;2632;51.666;7.146;2023-07-29T14:56:51;10.07;;;1.80;;
5225;SDS011;2632;51.666;7.146;2023-07-29T14:59:18;3.30;;;1.40;;
5225;SDS011;2632;51.666;7.146;2023-07-29T15:01:44;3.33;;;1.70;;
5225;SDS011;2632;51.666;7.146;2023-07-29T15:04:11;3.27;;;2.00;;
5225;SDS011;2632;51.666;7.146;2023-07-29T15:06:38;2.50;;;1.93;;
5225;SDS011;2632;51.666;7.146;2023-07-29T15:09:05;5.40;;;1.60;;
5225;SDS011;2632;51.666;7.146;2023-07-29T15:11:33;1.37;;;1.20;;
5225;SDS011;2632;51.666;7.146;2023-07-29T15:14:00;2.00;;;1.57;;
5225;SDS011;2632;51.666;7.146;2023-07-29T15:16:27;2.70;;;1.40;;
5225;SDS011;2632;51.666;7.146;2023-07-29T15:18:53;1.93;;;1.50;;
5225;SDS011;2632;51.666;7.146;2023-07-29T15:21:20;1.87;;;1.30;;
5225;SDS011;2632;51.666;7.146;2023-07-29T15:23:47;2.93;;;1.33;;
5225;SDS011;2632;51.666;7.146;2023-07-29T15:26:14;1.53;;;1.40;;
5225;SDS011;2632;51.666;7.146;2023-07-29T15:28:40;7.80;;;2.10;;
5225;SDS011;2632;51.666;7.146;2023-07-29T15:31:07;2.60;;;1.60;;
5225;SDS011;2632;51.666;7.146;2023-07-29T15:33:34;1.87;;;1.50;;
5225;SDS011;2632;51.666;7.146;2023-07-29T15:36:01;4.73;;;1.53;;
5225;SDS011;2632;51.666;7.146;2023-07-29T15:38:28;1.87;;;1.47;;
5225;SDS011;2632;51.666;7.146;2023-07-29T15:40:55;2.00;;;1.60;;
5225;SDS011;2632;51.666;7.146;2023-07-29T15:43:22;3.90;;;1.20;;